nws-alerts: Checking more than four warning/county codes can delay the loading of your pages. You should use a cron job to get the data.
EllijayWeather Station Historical Data
Daily Summary for May 12, 2019 Units:  English    Metric   Both
Daily Weekly Monthly Yearly Custom
  High: Low: Average:
Temperature: 70 °F 62.4 °F 65.6 °F
Dew Point: 66.4 °F 61.5 °F 64.5 °F
Humidity: 99% 85% 96%
Wind Speed: 2mph 0mph 0mph
Wind Gust: 8mph - -
Wind- - ESE
Pressure: 29.87 in 29.73 in -
Precipitation: 0.03 in    
Historical Graphs
 
 
Tabular Data for May 12, 2019
Time Temperature Dew Point Pressure Wind Wind Speed Wind Gust Humidity Rainfall Rate (Hourly) solar
00:04 66.6 °F 65.7 °F 29.85 in Calm     97% 0 in meteobridge W/m2
00:09 66.4 °F 65.5 °F 29.85 in Calm     97% 0 in meteobridge W/m2
00:14 66.4 °F 65.5 °F 29.85 in Calm     97% 0 in meteobridge W/m2
00:19 66 °F 64.8 °F 29.86 in North 0.9 mph 1 mph 96% 0 in meteobridge W/m2
00:24 66 °F 64.8 °F 29.86 in Calm   1 mph 96% 0 in meteobridge W/m2
00:29 66 °F 65.1 °F 29.85 in Calm     97% 0 in meteobridge W/m2
00:34 66 °F 65.1 °F 29.86 in Calm     97% 0 in meteobridge W/m2
00:39 66 °F 65.1 °F 29.86 in Calm     97% 0 in meteobridge W/m2
00:44 66 °F 65.1 °F 29.86 in Calm     97% 0 in meteobridge W/m2
00:49 65.8 °F 65.3 °F 29.86 in Calm     98% 0 in meteobridge W/m2
00:54 65.8 °F 65.3 °F 29.86 in Calm     98% 0 in meteobridge W/m2
00:59 65.8 °F 65.3 °F 29.86 in Calm   1 mph 98% 0 in meteobridge W/m2
01:04 65.8 °F 65.3 °F 29.86 in Calm     98% 0 in meteobridge W/m2
01:09 65.8 °F 65.3 °F 29.86 in Calm     98% 0 in meteobridge W/m2
01:14 65.8 °F 65.3 °F 29.86 in Calm     98% 0 in meteobridge W/m2
01:19 65.8 °F 65.3 °F 29.86 in Calm     98% 0 in meteobridge W/m2
01:24 65.8 °F 65.3 °F 29.87 in ENE 2 mph 5 mph 98% 0 in meteobridge W/m2
01:29 65.8 °F 65.3 °F 29.87 in Calm     98% 0 in meteobridge W/m2
01:34 65.8 °F 65.3 °F 29.87 in Calm   1 mph 98% 0.01 in meteobridge W/m2
01:39 65.7 °F 65.1 °F 29.87 in Calm   1 mph 98% 0.01 in meteobridge W/m2
01:44 65.8 °F 65.3 °F 29.86 in Calm     98% 0.01 in meteobridge W/m2
01:49 65.8 °F 65.3 °F 29.86 in Calm   1 mph 98% 0.01 in meteobridge W/m2
01:54 65.7 °F 64.8 °F 29.86 in Calm   1 mph 97% 0.01 in meteobridge W/m2
01:59 65.7 °F 65.1 °F 29.86 in Calm   7 mph 98% 0.01 in meteobridge W/m2
02:04 65.7 °F 65.1 °F 29.86 in Calm     98% 0.01 in meteobridge W/m2
02:09 65.7 °F 64.8 °F 29.86 in Calm   3 mph 97% 0.01 in meteobridge W/m2
02:14 65.5 °F 64.6 °F 29.85 in ENE 2 mph 2 mph 97% 0.01 in meteobridge W/m2
02:19 65.3 °F 64.4 °F 29.85 in Calm     97% 0.01 in meteobridge W/m2
02:24 65.1 °F 64.2 °F 29.85 in Calm     97% 0.01 in meteobridge W/m2
02:29 65.1 °F 64.2 °F 29.84 in Calm     97% 0.01 in meteobridge W/m2
02:34 65.1 °F 64.6 °F 29.84 in Calm     98% 0 in meteobridge W/m2
02:39 64.9 °F 64.4 °F 29.84 in Calm     98% 0 in meteobridge W/m2
02:44 64.9 °F 64.4 °F 29.83 in Calm     98% 0 in meteobridge W/m2
02:49 64.9 °F 64.4 °F 29.83 in Calm     98% 0 in meteobridge W/m2
02:54 64.9 °F 64.4 °F 29.82 in Calm     98% 0 in meteobridge W/m2
02:59 64.9 °F 64.4 °F 29.81 in Calm     98% 0 in meteobridge W/m2
03:04 64.9 °F 64.4 °F 29.80 in Calm     98% 0 in meteobridge W/m2
03:09 64.9 °F 64.4 °F 29.80 in Calm     98% 0 in meteobridge W/m2
03:14 64.8 °F 64.2 °F 29.80 in Calm     98% 0 in meteobridge W/m2
03:19 64.8 °F 64.2 °F 29.79 in Calm     98% 0 in meteobridge W/m2
03:24 64.8 °F 64.2 °F 29.79 in Calm     98% 0 in meteobridge W/m2
03:29 64.8 °F 64.2 °F 29.77 in Calm     98% 0 in meteobridge W/m2
03:34 64.8 °F 64.2 °F 29.79 in Calm     98% 0 in meteobridge W/m2
03:39 64.8 °F 64.4 °F 29.79 in Calm     99% 0 in meteobridge W/m2
03:44 64.8 °F 64.4 °F 29.79 in Calm     99% 0 in meteobridge W/m2
03:49 64.8 °F 64.4 °F 29.79 in Calm     99% 0 in meteobridge W/m2
03:54 64.8 °F 64.4 °F 29.79 in Calm     99% 0 in meteobridge W/m2
03:59 64.8 °F 64.4 °F 29.78 in Calm     99% 0 in meteobridge W/m2
04:04 64.8 °F 64.4 °F 29.77 in Calm     99% 0 in meteobridge W/m2
04:09 64.8 °F 64.4 °F 29.78 in Calm     99% 0 in meteobridge W/m2
04:14 64.6 °F 64.2 °F 29.78 in Calm     99% 0 in meteobridge W/m2
04:19 64.6 °F 64.2 °F 29.79 in Calm     99% 0 in meteobridge W/m2
04:24 64.6 °F 64.2 °F 29.78 in Calm     99% 0 in meteobridge W/m2
04:29 64.8 °F 64.4 °F 29.79 in Calm     99% 0 in meteobridge W/m2
04:34 64.8 °F 64.4 °F 29.79 in Calm     99% 0 in meteobridge W/m2
04:39 64.8 °F 64.4 °F 29.79 in Calm     99% 0 in meteobridge W/m2
04:44 64.8 °F 64.4 °F 29.79 in Calm     99% 0 in meteobridge W/m2
04:49 64.8 °F 64.4 °F 29.79 in Calm     99% 0 in meteobridge W/m2
04:54 64.8 °F 64.4 °F 29.78 in Calm     99% 0 in meteobridge W/m2
04:59 64.8 °F 64.4 °F 29.78 in Calm     99% 0 in meteobridge W/m2
05:04 64.8 °F 64.4 °F 29.78 in Calm     99% 0 in meteobridge W/m2
05:09 64.6 °F 64.2 °F 29.77 in Calm     99% 0 in meteobridge W/m2
05:14 64.6 °F 64.2 °F 29.77 in Calm     99% 0 in meteobridge W/m2
05:19 64.6 °F 64.2 °F 29.76 in Calm     99% 0 in meteobridge W/m2
05:24 64.6 °F 64.2 °F 29.76 in Calm     99% 0 in meteobridge W/m2
05:29 64.4 °F 63.9 °F 29.76 in Calm     98% 0 in meteobridge W/m2
05:34 64.4 °F 64 °F 29.76 in Calm     99% 0 in meteobridge W/m2
05:39 64.4 °F 64 °F 29.77 in Calm     99% 0 in meteobridge W/m2
05:44 64.4 °F 64 °F 29.78 in Calm     99% 0 in meteobridge W/m2
05:49 64.4 °F 64 °F 29.79 in Calm     99% 0 in meteobridge W/m2
05:54 64.4 °F 64 °F 29.80 in Calm     99% 0 in meteobridge W/m2
05:59 64.4 °F 64 °F 29.80 in Calm     99% 0 in meteobridge W/m2
06:04 64.4 °F 64 °F 29.80 in Calm     99% 0 in meteobridge W/m2
06:09 64.4 °F 64 °F 29.80 in Calm     99% 0 in meteobridge W/m2
06:14 64.2 °F 63.9 °F 29.80 in Calm     99% 0 in meteobridge W/m2
06:19 64.2 °F 63.9 °F 29.80 in Calm     99% 0 in meteobridge W/m2
06:24 64.4 °F 64 °F 29.80 in Calm     99% 0 in meteobridge W/m2
06:29 64.4 °F 64 °F 29.80 in Calm     99% 0 in meteobridge W/m2
06:34 64.4 °F 64 °F 29.80 in Calm     99% 0 in meteobridge W/m2
06:39 64.4 °F 64 °F 29.80 in Calm     99% 0 in meteobridge W/m2
06:44 64.4 °F 64 °F 29.81 in Calm     99% 0 in meteobridge W/m2
06:49 64.2 °F 63.9 °F 29.81 in Calm     99% 0 in meteobridge W/m2
06:54 64.2 °F 63.9 °F 29.82 in Calm     99% 0 in meteobridge W/m2
06:59 64.2 °F 63.9 °F 29.82 in Calm     99% 0.01 in meteobridge W/m2
07:04 64.2 °F 63.9 °F 29.82 in Calm     99% 0.01 in meteobridge W/m2
07:09 64.2 °F 63.9 °F 29.82 in Calm     99% 0.01 in meteobridge W/m2
07:14 64.2 °F 63.9 °F 29.82 in Calm     99% 0.01 in meteobridge W/m2
07:19 64.2 °F 63.9 °F 29.82 in Calm     99% 0.01 in meteobridge W/m2
07:24 64.2 °F 63.9 °F 29.83 in Calm   3 mph 99% 0.01 in meteobridge W/m2
07:29 64.2 °F 63.9 °F 29.83 in Calm   1 mph 99% 0.01 in meteobridge W/m2
07:34 64.2 °F 63.9 °F 29.83 in Calm   3 mph 99% 0.01 in meteobridge W/m2
07:39 64.2 °F 63.9 °F 29.83 in Calm     99% 0.01 in meteobridge W/m2
07:44 64.2 °F 63.9 °F 29.82 in Calm     99% 0.01 in meteobridge W/m2
07:49 64.2 °F 63.9 °F 29.82 in Calm     99% 0.01 in meteobridge W/m2
07:54 64.2 °F 63.9 °F 29.83 in Calm     99% 0.01 in meteobridge W/m2
07:59 64.4 °F 64 °F 29.83 in Calm   1 mph 99% 0 in meteobridge W/m2
08:04 64.2 °F 63.9 °F 29.82 in Calm     99% 0 in meteobridge W/m2
08:09 64.4 °F 64 °F 29.82 in Calm     99% 0 in meteobridge W/m2
08:14 64.2 °F 63.9 °F 29.81 in Calm     99% 0 in meteobridge W/m2
08:19 64.2 °F 63.9 °F 29.81 in Calm     99% 0 in meteobridge W/m2
08:24 64.4 °F 64 °F 29.81 in Calm     99% 0 in meteobridge W/m2
08:29 64.4 °F 64 °F 29.81 in Calm     99% 0 in meteobridge W/m2
08:34 64.6 °F 64.2 °F 29.81 in Calm     99% 0 in meteobridge W/m2
08:39 64.8 °F 64.4 °F 29.81 in Calm     99% 0 in meteobridge W/m2
08:44 64.9 °F 64.6 °F 29.81 in Calm     99% 0 in meteobridge W/m2
08:49 65.1 °F 64.8 °F 29.82 in Calm     99% 0 in meteobridge W/m2
08:54 65.1 °F 64.8 °F 29.82 in Calm     99% 0 in meteobridge W/m2
08:59 65.1 °F 64.8 °F 29.82 in Calm     99% 0 in meteobridge W/m2
09:04 65.1 °F 64.8 °F 29.82 in Calm   1 mph 99% 0 in meteobridge W/m2
09:09 64.9 °F 64.4 °F 29.82 in Calm     98% 0 in meteobridge W/m2
09:14 64.9 °F 64.4 °F 29.82 in Calm   3 mph 98% 0 in meteobridge W/m2
09:19 64.9 °F 64.4 °F 29.82 in NE 0.9 mph 1 mph 98% 0 in meteobridge W/m2
09:24 64.9 °F 64.4 °F 29.82 in Calm     98% 0 in meteobridge W/m2
09:29 64.9 °F 64.4 °F 29.81 in Calm     98% 0 in meteobridge W/m2
09:34 64.9 °F 64.4 °F 29.81 in NW 0.9 mph 4 mph 98% 0 in meteobridge W/m2
09:39 64.9 °F 64.4 °F 29.80 in Calm     98% 0 in meteobridge W/m2
09:44 64.9 °F 64.4 °F 29.80 in Calm     98% 0 in meteobridge W/m2
09:49 65.1 °F 64.8 °F 29.82 in Calm     99% 0 in meteobridge W/m2
09:54 65.1 °F 64.8 °F 29.82 in Calm   1 mph 99% 0 in meteobridge W/m2
09:59 65.3 °F 64.8 °F 29.83 in NE 2 mph 3 mph 98% 0 in meteobridge W/m2
10:04 65.3 °F 64.8 °F 29.82 in Calm     98% 0 in meteobridge W/m2
10:09 65.3 °F 64.8 °F 29.83 in Calm   2 mph 98% 0 in meteobridge W/m2
10:14 65.5 °F 64.9 °F 29.82 in Calm     98% 0 in meteobridge W/m2
10:19 65.5 °F 64.9 °F 29.82 in Calm   2 mph 98% 0 in meteobridge W/m2
10:24 65.5 °F 64.9 °F 29.82 in Calm     98% 0 in meteobridge W/m2
10:29 65.5 °F 64.9 °F 29.82 in Calm     98% 0 in meteobridge W/m2
10:34 65.5 °F 64.6 °F 29.82 in Calm     97% 0 in meteobridge W/m2
10:39 65.3 °F 64.4 °F 29.82 in Calm   1 mph 97% 0 in meteobridge W/m2
10:44 65.1 °F 64.6 °F 29.82 in Calm     98% 0 in meteobridge W/m2
10:49 64.9 °F 64 °F 29.82 in Calm   5 mph 97% 0 in meteobridge W/m2
10:54 64.8 °F 63.9 °F 29.82 in Calm   2 mph 97% 0 in meteobridge W/m2
10:59 64.6 °F 64 °F 29.82 in Calm   1 mph 98% 0 in meteobridge W/m2
11:04 64.8 °F 64.2 °F 29.82 in Calm     98% 0 in meteobridge W/m2
11:09 64.6 °F 64 °F 29.81 in Calm     98% 0 in meteobridge W/m2
11:14 64.6 °F 64 °F 29.82 in Calm     98% 0 in meteobridge W/m2
11:19 64.6 °F 64 °F 29.82 in Calm   2 mph 98% 0 in meteobridge W/m2
11:24 64.6 °F 64 °F 29.82 in Calm     98% 0 in meteobridge W/m2
11:29 64.6 °F 64 °F 29.81 in Calm     98% 0 in meteobridge W/m2
11:34 64.6 °F 64 °F 29.82 in Calm   1 mph 98% 0 in meteobridge W/m2
11:39 64.6 °F 64.2 °F 29.83 in Calm     99% 0 in meteobridge W/m2
11:44 64.8 °F 64.4 °F 29.83 in Calm   1 mph 99% 0 in meteobridge W/m2
11:49 64.8 °F 64.4 °F 29.83 in Calm   2 mph 99% 0 in meteobridge W/m2
11:54 64.8 °F 64.2 °F 29.83 in Calm     98% 0 in meteobridge W/m2
11:59 64.8 °F 64.2 °F 29.83 in Calm     98% 0 in meteobridge W/m2
12:04 64.8 °F 64.2 °F 29.84 in Calm   2 mph 98% 0 in meteobridge W/m2
12:09 64.6 °F 64 °F 29.83 in Calm     98% 0 in meteobridge W/m2
12:14 64.8 °F 64.2 °F 29.83 in Calm     98% 0 in meteobridge W/m2
12:19 64.8 °F 64.4 °F 29.83 in Calm   2 mph 99% 0 in meteobridge W/m2
12:24 64.8 °F 64.4 °F 29.83 in Calm     99% 0 in meteobridge W/m2
12:29 64.8 °F 64.2 °F 29.83 in Calm     98% 0 in meteobridge W/m2
12:34 64.8 °F 64.2 °F 29.82 in Calm   5 mph 98% 0 in meteobridge W/m2
12:39 64.8 °F 64.2 °F 29.82 in Calm     98% 0 in meteobridge W/m2
12:44 64.8 °F 64.2 °F 29.82 in ESE 0.9 mph 1 mph 98% 0 in meteobridge W/m2
12:49 64.8 °F 64.2 °F 29.82 in Calm     98% 0 in meteobridge W/m2
12:54 64.8 °F 64.2 °F 29.82 in Calm     98% 0 in meteobridge W/m2
12:59 64.6 °F 64 °F 29.82 in Calm     98% 0 in meteobridge W/m2
13:04 64.8 °F 64.2 °F 29.81 in Calm   2 mph 98% 0 in meteobridge W/m2
13:09 64.8 °F 64.2 °F 29.81 in Calm     98% 0 in meteobridge W/m2
13:14 64.9 °F 64.4 °F 29.81 in Calm   2 mph 98% 0 in meteobridge W/m2
13:19 64.9 °F 64.4 °F 29.81 in Calm     98% 0 in meteobridge W/m2
13:24 65.1 °F 64.8 °F 29.80 in Calm   1 mph 99% 0 in meteobridge W/m2
13:29 65.7 °F 65.3 °F 29.80 in Calm     99% 0 in meteobridge W/m2
13:34 66 °F 65.7 °F 29.80 in Calm   1 mph 99% 0 in meteobridge W/m2
13:39 65.8 °F 64.9 °F 29.80 in Calm     97% 0 in meteobridge W/m2
13:44 65.7 °F 64.8 °F 29.80 in Calm     97% 0 in meteobridge W/m2
13:49 65.5 °F 64.6 °F 29.80 in Calm     97% 0 in meteobridge W/m2
13:54 65.7 °F 65.1 °F 29.80 in Calm     98% 0 in meteobridge W/m2
13:59 66 °F 65.5 °F 29.79 in Calm   2 mph 98% 0 in meteobridge W/m2
14:04 66.4 °F 65.8 °F 29.80 in Calm     98% 0 in meteobridge W/m2
14:09 66.4 °F 65.5 °F 29.80 in Calm   2 mph 97% 0 in meteobridge W/m2
14:14 66.2 °F 64.9 °F 29.80 in Calm     96% 0 in meteobridge W/m2
14:19 66.2 °F 64.9 °F 29.79 in Calm     96% 0 in meteobridge W/m2
14:24 66.6 °F 65.7 °F 29.79 in Calm     97% 0 in meteobridge W/m2
14:29 66.9 °F 66.4 °F 29.79 in Calm   3 mph 98% 0 in meteobridge W/m2
14:34 67.3 °F 66 °F 29.79 in Calm   2 mph 96% 0 in meteobridge W/m2
14:39 67.3 °F 65.8 °F 29.79 in Calm   2 mph 95% 0 in meteobridge W/m2
14:44 67.3 °F 66 °F 29.79 in East 0.9 mph 4 mph 96% 0 in meteobridge W/m2
14:49 67.1 °F 65.3 °F 29.79 in Calm   3 mph 94% 0 in meteobridge W/m2
14:54 67.3 °F 65.8 °F 29.78 in Calm     95% 0 in meteobridge W/m2
14:59 67.3 °F 66 °F 29.78 in Calm   3 mph 96% 0 in meteobridge W/m2
15:04 67.5 °F 66 °F 29.78 in Calm   1 mph 95% 0 in meteobridge W/m2
15:09 67.8 °F 66 °F 29.78 in Calm   1 mph 94% 0 in meteobridge W/m2
15:14 67.6 °F 65.5 °F 29.78 in Calm   1 mph 93% 0 in meteobridge W/m2
15:19 67.6 °F 64.9 °F 29.77 in Calm   1 mph 91% 0 in meteobridge W/m2
15:24 67.6 °F 65.5 °F 29.77 in Calm     93% 0 in meteobridge W/m2
15:29 67.8 °F 66 °F 29.77 in Calm   3 mph 94% 0 in meteobridge W/m2
15:34 68.2 °F 66.4 °F 29.76 in Calm     94% 0 in meteobridge W/m2
15:39 68.4 °F 66 °F 29.76 in Calm     92% 0 in meteobridge W/m2
15:44 68.5 °F 66.4 °F 29.76 in Calm   1 mph 93% 0 in meteobridge W/m2
15:49 69.1 °F 66.4 °F 29.76 in Calm   1 mph 91% 0 in meteobridge W/m2
15:54 69.3 °F 65.8 °F 29.76 in Calm   4 mph 89% 0 in meteobridge W/m2
15:59 69.6 °F 66.2 °F 29.75 in Calm   3 mph 89% 0 in meteobridge W/m2
16:04 69.6 °F 65.7 °F 29.75 in Calm   1 mph 87% 0 in meteobridge W/m2
16:09 69.8 °F 65.5 °F 29.75 in Calm     86% 0 in meteobridge W/m2
16:14 70 °F 65.7 °F 29.75 in Calm   5 mph 86% 0 in meteobridge W/m2
16:19 69.8 °F 65.5 °F 29.75 in WNW 2 mph 2 mph 86% 0 in meteobridge W/m2
16:24 69.4 °F 65.1 °F 29.75 in Calm     86% 0 in meteobridge W/m2
16:29 69.3 °F 65.3 °F 29.75 in Calm   1 mph 87% 0 in meteobridge W/m2
16:34 69.4 °F 66 °F 29.75 in Calm   5 mph 89% 0 in meteobridge W/m2
16:39 69.4 °F 64.8 °F 29.75 in Calm   1 mph 85% 0 in meteobridge W/m2
16:44 69.1 °F 64.8 °F 29.75 in Calm   1 mph 86% 0 in meteobridge W/m2
16:49 68.7 °F 65.3 °F 29.75 in Calm   3 mph 89% 0 in meteobridge W/m2
16:54 68.7 °F 65.3 °F 29.75 in Calm     89% 0 in meteobridge W/m2
16:59 68.7 °F 65.3 °F 29.75 in Calm   4 mph 89% 0 in meteobridge W/m2
17:04 68.7 °F 65.3 °F 29.75 in Calm     89% 0 in meteobridge W/m2
17:09 68.7 °F 64.9 °F 29.75 in Calm   8 mph 88% 0 in meteobridge W/m2
17:14 68.5 °F 64.8 °F 29.74 in Calm   3 mph 88% 0 in meteobridge W/m2
17:19 68.5 °F 64.8 °F 29.74 in Calm   2 mph 88% 0 in meteobridge W/m2
17:24 68.7 °F 65.3 °F 29.74 in Calm   3 mph 89% 0 in meteobridge W/m2
17:29 68.9 °F 65.1 °F 29.74 in Calm   2 mph 88% 0 in meteobridge W/m2
17:34 68.9 °F 65.8 °F 29.74 in Calm   1 mph 90% 0 in meteobridge W/m2
17:39 69.1 °F 65.7 °F 29.74 in Calm   1 mph 89% 0 in meteobridge W/m2
17:44 69.3 °F 65.8 °F 29.74 in Calm     89% 0 in meteobridge W/m2
17:49 69.3 °F 65.8 °F 29.74 in Calm     89% 0 in meteobridge W/m2
17:54 69.3 °F 65.5 °F 29.74 in Calm   3 mph 88% 0 in meteobridge W/m2
17:59 69.1 °F 65.3 °F 29.74 in Calm   1 mph 88% 0 in meteobridge W/m2
18:04 69.3 °F 65.5 °F 29.74 in Calm     88% 0 in meteobridge W/m2
18:09 69.1 °F 65.7 °F 29.74 in Calm     89% 0 in meteobridge W/m2
18:14 69.1 °F 66 °F 29.74 in Calm     90% 0 in meteobridge W/m2
18:19 68.7 °F 65.7 °F 29.74 in Calm     90% 0 in meteobridge W/m2
18:24 68.7 °F 65.7 °F 29.74 in Calm     90% 0 in meteobridge W/m2
18:29 68.5 °F 65.5 °F 29.74 in Calm     90% 0 in meteobridge W/m2
18:34 68.5 °F 65.5 °F 29.74 in Calm     90% 0 in meteobridge W/m2
18:39 68.4 °F 65.3 °F 29.74 in Calm     90% 0 in meteobridge W/m2
18:44 68.4 °F 65.3 °F 29.74 in Calm     90% 0 in meteobridge W/m2
18:49 68.2 °F 65.5 °F 29.74 in Calm     91% 0 in meteobridge W/m2
18:54 68.2 °F 65.5 °F 29.74 in Calm     91% 0 in meteobridge W/m2
18:59 68 °F 65.7 °F 29.74 in Calm     92% 0 in meteobridge W/m2
19:04 67.8 °F 65.5 °F 29.74 in Calm     92% 0 in meteobridge W/m2
19:09 67.6 °F 65.5 °F 29.73 in Calm     93% 0 in meteobridge W/m2
19:14 67.6 °F 65.8 °F 29.73 in Calm     94% 0 in meteobridge W/m2
19:19 67.6 °F 65.8 °F 29.74 in Calm   1 mph 94% 0 in meteobridge W/m2
19:24 67.6 °F 65.5 °F 29.74 in Calm     93% 0 in meteobridge W/m2
19:29 67.6 °F 65.8 °F 29.74 in Calm     94% 0 in meteobridge W/m2
19:34 67.5 °F 65.1 °F 29.74 in Calm   1 mph 92% 0 in meteobridge W/m2
19:39 67.3 °F 64.9 °F 29.74 in Calm     92% 0 in meteobridge W/m2
19:44 67.1 °F 64.9 °F 29.75 in Calm     93% 0 in meteobridge W/m2
19:49 66.9 °F 64.8 °F 29.75 in Calm     93% 0 in meteobridge W/m2
19:54 66.7 °F 64.6 °F 29.75 in Calm     93% 0 in meteobridge W/m2
19:59 66.6 °F 64.8 °F 29.75 in Calm     94% 0 in meteobridge W/m2
20:04 66.4 °F 64.6 °F 29.75 in Calm     94% 0 in meteobridge W/m2
20:09 66 °F 64.6 °F 29.75 in Calm     95% 0 in meteobridge W/m2
20:14 66 °F 64.6 °F 29.75 in Calm     95% 0 in meteobridge W/m2
20:19 65.8 °F 64.4 °F 29.75 in Calm     95% 0 in meteobridge W/m2
20:24 65.7 °F 64.2 °F 29.75 in Calm     95% 0 in meteobridge W/m2
20:29 65.5 °F 64.2 °F 29.75 in Calm     96% 0 in meteobridge W/m2
20:34 65.3 °F 64 °F 29.75 in Calm     96% 0 in meteobridge W/m2
20:39 65.1 °F 64 °F 29.75 in Calm     96% 0 in meteobridge W/m2
20:44 64.9 °F 64 °F 29.75 in Calm     97% 0 in meteobridge W/m2
20:49 64.9 °F 64 °F 29.76 in Calm     97% 0 in meteobridge W/m2
20:54 64.8 °F 63.9 °F 29.76 in Calm     97% 0 in meteobridge W/m2
20:59 64.8 °F 63.7 °F 29.76 in Calm     96% 0 in meteobridge W/m2
21:04 64.6 °F 63.7 °F 29.76 in Calm     97% 0 in meteobridge W/m2
21:09 64.6 °F 63.7 °F 29.76 in Calm     97% 0 in meteobridge W/m2
21:14 64.6 °F 63.7 °F 29.77 in Calm     97% 0 in meteobridge W/m2
21:19 64.4 °F 63.5 °F 29.77 in Calm     97% 0 in meteobridge W/m2
21:24 64.2 °F 63.3 °F 29.77 in Calm     97% 0 in meteobridge W/m2
21:29 64.2 °F 63.3 °F 29.77 in Calm     97% 0 in meteobridge W/m2
21:34 64.2 °F 63.3 °F 29.77 in Calm     97% 0 in meteobridge W/m2
21:39 64 °F 63.1 °F 29.77 in Calm     97% 0 in meteobridge W/m2
21:44 64 °F 63.1 °F 29.77 in Calm     97% 0 in meteobridge W/m2
21:49 64 °F 63.1 °F 29.77 in Calm     97% 0 in meteobridge W/m2
21:54 64 °F 63.1 °F 29.77 in Calm     97% 0 in meteobridge W/m2
21:59 64 °F 63.5 °F 29.77 in Calm     98% 0 in meteobridge W/m2
22:04 63.9 °F 63.3 °F 29.77 in Calm     98% 0 in meteobridge W/m2
22:09 63.9 °F 63.3 °F 29.78 in Calm     98% 0 in meteobridge W/m2
22:14 63.7 °F 63.1 °F 29.78 in Calm     98% 0 in meteobridge W/m2
22:19 63.7 °F 63.1 °F 29.78 in Calm     98% 0 in meteobridge W/m2
22:24 63.7 °F 63.1 °F 29.78 in Calm     98% 0 in meteobridge W/m2
22:29 63.7 °F 63.1 °F 29.78 in Calm     98% 0 in meteobridge W/m2
22:34 63.7 °F 63.1 °F 29.78 in Calm     98% 0 in meteobridge W/m2
22:39 63.7 °F 63.1 °F 29.79 in Calm     98% 0 in meteobridge W/m2
22:44 63.7 °F 63.1 °F 29.79 in Calm     98% 0 in meteobridge W/m2
22:49 63.7 °F 63.1 °F 29.79 in Calm     98% 0 in meteobridge W/m2
22:54 63.7 °F 63.1 °F 29.78 in Calm     98% 0 in meteobridge W/m2
22:59 63.5 °F 63 °F 29.79 in Calm     98% 0 in meteobridge W/m2
23:04 63.7 °F 63.1 °F 29.79 in Calm     98% 0 in meteobridge W/m2
23:09 63.7 °F 63.1 °F 29.80 in Calm     98% 0 in meteobridge W/m2
23:14 63.7 °F 63.1 °F 29.80 in Calm     98% 0.01 in meteobridge W/m2
23:19 63.5 °F 63 °F 29.80 in Calm     98% 0.01 in meteobridge W/m2
23:24 63.3 °F 62.8 °F 29.80 in Calm     98% 0.01 in meteobridge W/m2
23:29 63.1 °F 62.6 °F 29.80 in Calm     98% 0.01 in meteobridge W/m2
23:34 63 °F 62.1 °F 29.80 in Calm     97% 0.01 in meteobridge W/m2
23:39 63 °F 62.1 °F 29.80 in Calm     97% 0.01 in meteobridge W/m2
23:44 62.8 °F 61.9 °F 29.80 in Calm     97% 0.01 in meteobridge W/m2
23:49 62.8 °F 61.9 °F 29.80 in Calm     97% 0.01 in meteobridge W/m2
23:54 62.6 °F 62.1 °F 29.80 in Calm     98% 0.01 in meteobridge W/m2
23:59 62.4 °F 61.5 °F 29.80 in Calm     97% 0.01 in meteobridge W/m2
EllijayWeather
Compliments of Weather Underground - 2.5 mb